sensor_id;sensor_type;location;lat;lon;timestamp;temperature;humidity
3678;DHT22;1855;50.934;6.958;2024-03-23T05:30:30;5.40;99.90
3678;DHT22;1855;50.934;6.958;2024-03-23T05:32:57;5.40;99.90
3678;DHT22;1855;50.934;6.958;2024-03-23T05:35:23;5.30;99.90
3678;DHT22;1855;50.934;6.958;2024-03-23T05:37:50;5.30;99.90
3678;DHT22;1855;50.934;6.958;2024-03-23T05:40:15;5.30;99.90
3678;DHT22;1855;50.934;6.958;2024-03-23T05:42:42;5.20;99.90
3678;DHT22;1855;50.934;6.958;2024-03-23T05:45:08;5.20;99.90
3678;DHT22;1855;50.934;6.958;2024-03-23T05:47:38;5.20;99.90
3678;DHT22;1855;50.934;6.958;2024-03-23T05:50:04;5.20;99.90
3678;DHT22;1855;50.934;6.958;2024-03-23T05:52:31;5.20;99.90
3678;DHT22;1855;50.934;6.958;2024-03-23T05:54:57;5.20;99.90
3678;DHT22;1855;50.934;6.958;2024-03-23T05:57:24;5.20;99.90
3678;DHT22;1855;50.934;6.958;2024-03-23T05:59:51;5.20;99.90
3678;DHT22;1855;50.934;6.958;2024-03-23T06:02:18;5.20;99.90
3678;DHT22;1855;50.934;6.958;2024-03-23T06:04:46;5.20;99.90
3678;DHT22;1855;50.934;6.958;2024-03-23T06:07:13;5.30;99.90
3678;DHT22;1855;50.934;6.958;2024-03-23T06:09:39;5.30;99.90
3678;DHT22;1855;50.934;6.958;2024-03-23T06:12:06;5.30;99.90
3678;DHT22;1855;50.934;6.958;2024-03-23T06:14:32;5.30;99.90
3678;DHT22;1855;50.934;6.958;2024-03-23T06:16:59;5.30;99.90
3678;DHT22;1855;50.934;6.958;2024-03-23T06:19:25;5.30;99.90
3678;DHT22;1855;50.934;6.958;2024-03-23T06:21:54;5.30;99.90
3678;DHT22;1855;50.934;6.958;2024-03-23T06:24:20;5.40;99.90
3678;DHT22;1855;50.934;6.958;2024-03-23T06:26:47;5.30;99.90
3678;DHT22;1855;50.934;6.958;2024-03-23T06:29:13;5.30;99.90
3678;DHT22;1855;50.934;6.958;2024-03-23T06:31:39;5.30;99.90
3678;DHT22;1855;50.934;6.958;2024-03-23T06:34:05;5.30;99.90
3678;DHT22;1855;50.934;6.958;2024-03-23T06:36:32;5.30;99.90
3678;DHT22;1855;50.934;6.958;2024-03-23T06:38:59;5.30;99.90
3678;DHT22;1855;50.934;6.958;2024-03-23T06:41:26;5.40;99.90
3678;DHT22;1855;50.934;6.958;2024-03-23T06:43:52;5.40;99.90
3678;DHT22;1855;50.934;6.958;2024-03-23T06:46:19;5.40;99.90
3678;DHT22;1855;50.934;6.958;2024-03-23T06:48:45;5.40;99.90
3678;DHT22;1855;50.934;6.958;2024-03-23T06:51:11;5.50;99.90
3678;DHT22;1855;50.934;6.958;2024-03-23T06:53:37;5.50;99.90
3678;DHT22;1855;50.934;6.958;2024-03-23T06:56:06;5.60;99.90
3678;DHT22;1855;50.934;6.958;2024-03-23T06:58:32;5.70;99.90
3678;DHT22;1855;50.934;6.958;2024-03-23T07:00:58;5.70;99.90
3678;DHT22;1855;50.934;6.958;2024-03-23T07:03:24;5.70;99.90
3678;DHT22;1855;50.934;6.958;2024-03-23T07:05:51;5.80;99.90
3678;DHT22;1855;50.934;6.958;2024-03-23T07:08:17;5.90;99.90
3678;DHT22;1855;50.934;6.958;2024-03-23T07:10:47;6.00;99.90
3678;DHT22;1855;50.934;6.958;2024-03-23T07:13:14;6.10;99.90
3678;DHT22;1855;50.934;6.958;2024-03-23T07:15:40;6.20;99.90
3678;DHT22;1855;50.934;6.958;2024-03-23T07:18:06;6.20;99.90
3678;DHT22;1855;50.934;6.958;2024-03-23T07:20:33;6.30;99.90
3678;DHT22;1855;50.934;6.958;2024-03-23T07:22:59;6.40;99.90
3678;DHT22;1855;50.934;6.958;2024-03-23T07:25:25;6.40;99.90
3678;DHT22;1855;50.934;6.958;2024-03-23T07:27:53;6.50;99.90
3678;DHT22;1855;50.934;6.958;2024-03-23T07:30:21;6.60;99.90
3678;DHT22;1855;50.934;6.958;2024-03-23T07:32:47;6.70;99.90
3678;DHT22;1855;50.934;6.958;2024-03-23T07:35:14;6.80;99.90
3678;DHT22;1855;50.934;6.958;2024-03-23T07:37:40;6.90;99.90
3678;DHT22;1855;50.934;6.958;2024-03-23T07:40:08;7.00;99.90
3678;DHT22;1855;50.934;6.958;2024-03-23T07:42:34;7.10;99.90
3678;DHT22;1855;50.934;6.958;2024-03-23T07:45:01;7.20;99.90
3678;DHT22;1855;50.934;6.958;2024-03-23T07:47:28;7.30;99.90
3678;DHT22;1855;50.934;6.958;2024-03-23T07:49:55;7.40;99.90
3678;DHT22;1855;50.934;6.958;2024-03-23T07:52:21;7.50;99.90
3678;DHT22;1855;50.934;6.958;2024-03-23T07:54:47;7.60;99.90
3678;DHT22;1855;50.934;6.958;2024-03-23T07:57:13;7.70;99.90
3678;DHT22;1855;50.934;6.958;2024-03-23T07:59:40;7.80;99.90
3678;DHT22;1855;50.934;6.958;2024-03-23T08:02:06;7.80;99.90
3678;DHT22;1855;50.934;6.958;2024-03-23T08:04:34;7.90;99.90
3678;DHT22;1855;50.934;6.958;2024-03-23T08:07:00;8.00;99.90
3678;DHT22;1855;50.934;6.958;2024-03-23T08:09:26;8.10;99.90
3678;DHT22;1855;50.934;6.958;2024-03-23T08:11:52;8.10;99.90
3678;DHT22;1855;50.934;6.958;2024-03-23T08:14:19;8.20;99.90
3678;DHT22;1855;50.934;6.958;2024-03-23T08:16:45;8.30;99.90
3678;DHT22;1855;50.934;6.958;2024-03-23T08:19:14;8.40;99.90
3678;DHT22;1855;50.934;6.958;2024-03-23T08:21:41;8.50;99.90
3678;DHT22;1855;50.934;6.958;2024-03-23T08:24:08;8.70;99.90
3678;DHT22;1855;50.934;6.958;2024-03-23T08:26:33;8.80;99.90
3678;DHT22;1855;50.934;6.958;2024-03-23T08:29:01;8.90;99.90
3678;DHT22;1855;50.934;6.958;2024-03-23T08:31:27;9.00;99.90
3678;DHT22;1855;50.934;6.958;2024-03-23T08:33:53;9.00;99.90
3678;DHT22;1855;50.934;6.958;2024-03-23T08:36:19;8.90;99.90
3678;DHT22;1855;50.934;6.958;2024-03-23T08:38:47;8.70;99.90
3678;DHT22;1855;50.934;6.958;2024-03-23T08:41:15;8.50;99.90
3678;DHT22;1855;50.934;6.958;2024-03-23T08:43:42;8.40;99.90
3678;DHT22;1855;50.934;6.958;2024-03-23T08:46:09;8.30;99.90
3678;DHT22;1855;50.934;6.958;2024-03-23T08:48:38;8.20;99.90
3678;DHT22;1855;50.934;6.958;2024-03-23T08:51:05;8.10;99.90
3678;DHT22;1855;50.934;6.958;2024-03-23T08:53:33;8.40;99.90
3678;DHT22;1855;50.934;6.958;2024-03-23T08:56:01;8.50;99.90
3678;DHT22;1855;50.934;6.958;2024-03-23T08:58:29;8.70;99.90
3678;DHT22;1855;50.934;6.958;2024-03-23T09:00:56;8.90;99.90
3678;DHT22;1855;50.934;6.958;2024-03-23T09:03:23;9.00;99.90
3678;DHT22;1855;50.934;6.958;2024-03-23T09:05:49;9.10;99.90
3678;DHT22;1855;50.934;6.958;2024-03-23T09:08:16;9.20;99.90
3678;DHT22;1855;50.934;6.958;2024-03-23T09:10:42;9.60;99.90
3678;DHT22;1855;50.934;6.958;2024-03-23T09:13:10;9.80;99.90
3678;DHT22;1855;50.934;6.958;2024-03-23T09:15:45;10.10;99.90
3678;DHT22;1855;50.934;6.958;2024-03-23T09:18:12;10.40;99.90
3678;DHT22;1855;50.934;6.958;2024-03-23T09:20:38;10.50;99.90
3678;DHT22;1855;50.934;6.958;2024-03-23T09:23:04;10.20;99.90
3678;DHT22;1855;50.934;6.958;2024-03-23T09:25:30;9.70;99.90
3678;DHT22;1855;50.934;6.958;2024-03-23T09:27:58;9.40;99.90
3678;DHT22;1855;50.934;6.958;2024-03-23T09:30:25;9.30;99.90
3678;DHT22;1855;50.934;6.958;2024-03-23T09:32:52;9.20;99.90
3678;DHT22;1855;50.934;6.958;2024-03-23T09:35:18;9.20;99.90
3678;DHT22;1855;50.934;6.958;2024-03-23T09:37:45;9.50;99.90
3678;DHT22;1855;50.934;6.958;2024-03-23T09:40:11;9.70;99.90
3678;DHT22;1855;50.934;6.958;2024-03-23T09:42:38;10.00;99.90
3678;DHT22;1855;50.934;6.958;2024-03-23T09:45:05;10.10;99.90
3678;DHT22;1855;50.934;6.958;2024-03-23T09:47:34;10.30;99.90
3678;DHT22;1855;50.934;6.958;2024-03-23T09:50:00;10.30;99.90
3678;DHT22;1855;50.934;6.958;2024-03-23T09:52:27;10.50;99.90
3678;DHT22;1855;50.934;6.958;2024-03-23T09:54:53;10.70;99.90
3678;DHT22;1855;50.934;6.958;2024-03-23T09:57:19;11.00;93.40
3678;DHT22;1855;50.934;6.958;2024-03-23T09:59:45;11.20;95.10
3678;DHT22;1855;50.934;6.958;2024-03-23T10:02:12;11.20;90.30
3678;DHT22;1855;50.934;6.958;2024-03-23T10:04:43;11.10;85.20
3678;DHT22;1855;50.934;6.958;2024-03-23T10:07:14;10.90;78.70
3678;DHT22;1855;50.934;6.958;2024-03-23T10:09:40;10.70;83.00
3678;DHT22;1855;50.934;6.958;2024-03-23T10:12:11;10.70;82.80
3678;DHT22;1855;50.934;6.958;2024-03-23T10:14:37;10.80;82.20
3678;DHT22;1855;50.934;6.958;2024-03-23T10:17:12;10.70;79.30
3678;DHT22;1855;50.934;6.958;2024-03-23T10:19:39;10.40;82.30
3678;DHT22;1855;50.934;6.958;2024-03-23T10:22:09;10.50;83.90
3678;DHT22;1855;50.934;6.958;2024-03-23T10:24:35;10.80;81.20
3678;DHT22;1855;50.934;6.958;2024-03-23T10:27:01;11.00;76.40
3678;DHT22;1855;50.934;6.958;2024-03-23T10:29:28;11.00;73.80
3678;DHT22;1855;50.934;6.958;2024-03-23T10:31:58;10.80;73.50
3678;DHT22;1855;50.934;6.958;2024-03-23T10:34:33;10.60;72.40
3678;DHT22;1855;50.934;6.958;2024-03-23T10:37:01;10.10;99.90
3678;DHT22;1855;50.934;6.958;2024-03-23T10:39:32;9.20;99.90
3678;DHT22;1855;50.934;6.958;2024-03-23T10:42:01;8.50;99.90
3678;DHT22;1855;50.934;6.958;2024-03-23T10:44:29;7.90;99.90
3678;DHT22;1855;50.934;6.958;2024-03-23T10:46:56;7.60;99.90
3678;DHT22;1855;50.934;6.958;2024-03-23T10:49:25;7.50;99.90
3678;DHT22;1855;50.934;6.958;2024-03-23T10:51:52;7.50;99.90
3678;DHT22;1855;50.934;6.958;2024-03-23T10:54:20;7.50;99.90
3678;DHT22;1855;50.934;6.958;2024-03-23T10:56:50;7.70;99.90
3678;DHT22;1855;50.934;6.958;2024-03-23T10:59:17;8.00;99.90
3678;DHT22;1855;50.934;6.958;2024-03-23T11:01:54;8.30;99.90
3678;DHT22;1855;50.934;6.958;2024-03-23T11:04:31;8.80;99.90
3678;DHT22;1855;50.934;6.958;2024-03-23T11:06:57;9.20;99.90
3678;DHT22;1855;50.934;6.958;2024-03-23T11:09:41;9.40;99.90
3678;DHT22;1855;50.934;6.958;2024-03-23T11:12:28;9.30;99.90
3678;DHT22;1855;50.934;6.958;2024-03-23T11:14:59;9.30;99.90
3678;DHT22;1855;50.934;6.958;2024-03-23T11:17:26;9.50;99.90
3678;DHT22;1855;50.934;6.958;2024-03-23T11:19:54;10.00;99.90
3678;DHT22;1855;50.934;6.958;2024-03-23T11:22:41;10.40;99.90
3678;DHT22;1855;50.934;6.958;2024-03-23T11:25:15;10.80;99.90
3678;DHT22;1855;50.934;6.958;2024-03-23T11:27:43;10.80;99.60
3678;DHT22;1855;50.934;6.958;2024-03-23T11:30:15;10.70;99.90
3678;DHT22;1855;50.934;6.958;2024-03-23T11:32:42;10.60;99.90
3678;DHT22;1855;50.934;6.958;2024-03-23T11:35:10;10.30;99.90
3678;DHT22;1855;50.934;6.958;2024-03-23T11:37:36;10.10;99.90
3678;DHT22;1855;50.934;6.958;2024-03-23T11:40:19;9.80;99.90
3678;DHT22;1855;50.934;6.958;2024-03-23T11:42:47;9.50;99.90
3678;DHT22;1855;50.934;6.958;2024-03-23T11:45:14;9.20;99.90
3678;DHT22;1855;50.934;6.958;2024-03-23T11:47:41;8.90;99.90
3678;DHT22;1855;50.934;6.958;2024-03-23T11:50:08;9.00;99.90
3678;DHT22;1855;50.934;6.958;2024-03-23T11:52:34;9.10;99.90
3678;DHT22;1855;50.934;6.958;2024-03-23T11:55:05;9.10;99.90
3678;DHT22;1855;50.934;6.958;2024-03-23T11:57:33;9.20;99.90
3678;DHT22;1855;50.934;6.958;2024-03-23T12:00:01;9.00;99.90
3678;DHT22;1855;50.934;6.958;2024-03-23T12:02:27;8.90;99.90
3678;DHT22;1855;50.934;6.958;2024-03-23T12:04:54;8.60;99.90
3678;DHT22;1855;50.934;6.958;2024-03-23T12:07:20;8.20;99.90
3678;DHT22;1855;50.934;6.958;2024-03-23T12:10:02;7.80;99.90
3678;DHT22;1855;50.934;6.958;2024-03-23T12:12:28;7.50;99.90
3678;DHT22;1855;50.934;6.958;2024-03-23T12:15:03;7.30;99.90
3678;DHT22;1855;50.934;6.958;2024-03-23T12:17:30;7.20;99.90
3678;DHT22;1855;50.934;6.958;2024-03-23T12:19:57;7.30;99.90
3678;DHT22;1855;50.934;6.958;2024-03-23T12:22:24;7.70;99.90
3678;DHT22;1855;50.934;6.958;2024-03-23T12:24:51;8.30;99.90
3678;DHT22;1855;50.934;6.958;2024-03-23T12:27:17;8.70;99.90
3678;DHT22;1855;50.934;6.958;2024-03-23T12:29:44;8.80;99.90
3678;DHT22;1855;50.934;6.958;2024-03-23T12:32:13;8.70;99.90
3678;DHT22;1855;50.934;6.958;2024-03-23T12:34:40;8.40;99.90
3678;DHT22;1855;50.934;6.958;2024-03-23T12:37:06;8.10;99.90
3678;DHT22;1855;50.934;6.958;2024-03-23T12:39:33;7.70;99.90
3678;DHT22;1855;50.934;6.958;2024-03-23T12:42:01;7.50;99.90
3678;DHT22;1855;50.934;6.958;2024-03-23T12:44:28;7.40;99.90
3678;DHT22;1855;50.934;6.958;2024-03-23T12:46:54;7.20;99.90
3678;DHT22;1855;50.934;6.958;2024-03-23T12:49:22;7.00;99.90
3678;DHT22;1855;50.934;6.958;2024-03-23T12:51:53;7.00;99.90
3678;DHT22;1855;50.934;6.958;2024-03-23T12:54:21;7.50;99.90
3678;DHT22;1855;50.934;6.958;2024-03-23T12:56:48;8.10;99.90
3678;DHT22;1855;50.934;6.958;2024-03-23T12:59:15;8.70;99.90
3678;DHT22;1855;50.934;6.958;2024-03-23T13:01:42;9.20;99.90
3678;DHT22;1855;50.934;6.958;2024-03-23T13:04:09;9.30;99.90
3678;DHT22;1855;50.934;6.958;2024-03-23T13:06:36;9.30;99.90
3678;DHT22;1855;50.934;6.958;2024-03-23T13:09:03;9.30;99.90
3678;DHT22;1855;50.934;6.958;2024-03-23T13:11:29;9.20;99.90
3678;DHT22;1855;50.934;6.958;2024-03-23T13:13:56;9.10;99.90
3678;DHT22;1855;50.934;6.958;2024-03-23T13:16:22;8.90;99.90
3678;DHT22;1855;50.934;6.958;2024-03-23T13:18:48;8.80;99.90
3678;DHT22;1855;50.934;6.958;2024-03-23T13:21:15;9.00;99.90
3678;DHT22;1855;50.934;6.958;2024-03-23T13:23:46;9.20;99.90
3678;DHT22;1855;50.934;6.958;2024-03-23T13:26:13;9.70;99.90
3678;DHT22;1855;50.934;6.958;2024-03-23T13:28:40;10.30;99.90
3678;DHT22;1855;50.934;6.958;2024-03-23T13:31:07;10.90;99.90
3678;DHT22;1855;50.934;6.958;2024-03-23T13:33:33;11.40;95.60
3678;DHT22;1855;50.934;6.958;2024-03-23T13:36:00;11.60;82.20
3678;DHT22;1855;50.934;6.958;2024-03-23T13:38:27;11.70;77.50
3678;DHT22;1855;50.934;6.958;2024-03-23T13:40:56;12.10;80.80
3678;DHT22;1855;50.934;6.958;2024-03-23T13:43:23;12.30;77.30
3678;DHT22;1855;50.934;6.958;2024-03-23T13:45:53;12.40;73.20
3678;DHT22;1855;50.934;6.958;2024-03-23T13:48:21;12.30;69.90
3678;DHT22;1855;50.934;6.958;2024-03-23T13:50:47;12.10;70.90
3678;DHT22;1855;50.934;6.958;2024-03-23T13:53:14;11.90;70.80
3678;DHT22;1855;50.934;6.958;2024-03-23T13:55:46;11.50;72.10
3678;DHT22;1855;50.934;6.958;2024-03-23T13:58:14;11.10;73.90
3678;DHT22;1855;50.934;6.958;2024-03-23T14:00:40;10.80;76.90
3678;DHT22;1855;50.934;6.958;2024-03-23T14:03:08;10.60;81.50
3678;DHT22;1855;50.934;6.958;2024-03-23T14:05:33;10.30;71.50
3678;DHT22;1855;50.934;6.958;2024-03-23T14:08:00;9.70;70.60
3678;DHT22;1855;50.934;6.958;2024-03-23T14:10:26;9.00;99.20
3678;DHT22;1855;50.934;6.958;2024-03-23T14:12:53;8.40;97.40
3678;DHT22;1855;50.934;6.958;2024-03-23T14:15:20;8.00;97.20
3678;DHT22;1855;50.934;6.958;2024-03-23T14:17:47;7.90;98.20
3678;DHT22;1855;50.934;6.958;2024-03-23T14:20:13;7.90;99.90
3678;DHT22;1855;50.934;6.958;2024-03-23T14:22:40;8.20;99.90
3678;DHT22;1855;50.934;6.958;2024-03-23T14:25:07;8.50;98.70
3678;DHT22;1855;50.934;6.958;2024-03-23T14:27:34;8.80;92.80
3678;DHT22;1855;50.934;6.958;2024-03-23T14:30:03;9.10;92.90
3678;DHT22;1855;50.934;6.958;2024-03-23T14:32:31;9.30;88.80
3678;DHT22;1855;50.934;6.958;2024-03-23T14:34:59;9.30;77.60
3678;DHT22;1855;50.934;6.958;2024-03-23T14:37:26;9.40;81.30
3678;DHT22;1855;50.934;6.958;2024-03-23T14:39:52;9.40;81.90
3678;DHT22;1855;50.934;6.958;2024-03-23T14:42:18;9.60;80.00
3678;DHT22;1855;50.934;6.958;2024-03-23T14:44:44;9.70;81.40
3678;DHT22;1855;50.934;6.958;2024-03-23T14:47:11;9.70;78.00
3678;DHT22;1855;50.934;6.958;2024-03-23T14:49:39;9.70;83.40
3678;DHT22;1855;50.934;6.958;2024-03-23T14:52:06;9.60;85.40
3678;DHT22;1855;50.934;6.958;2024-03-23T14:54:32;9.50;90.30
3678;DHT22;1855;50.934;6.958;2024-03-23T14:57:00;9.10;99.90
3678;DHT22;1855;50.934;6.958;2024-03-23T14:59:27;8.40;99.90
3678;DHT22;1855;50.934;6.958;2024-03-23T15:01:53;7.80;99.90
3678;DHT22;1855;50.934;6.958;2024-03-23T15:04:20;7.10;99.90
3678;DHT22;1855;50.934;6.958;2024-03-23T15:06:48;6.30;99.90
3678;DHT22;1855;50.934;6.958;2024-03-23T15:09:15;5.80;99.90
3678;DHT22;1855;50.934;6.958;2024-03-23T15:11:43;5.50;99.90
3678;DHT22;1855;50.934;6.958;2024-03-23T15:14:09;5.20;99.90
3678;DHT22;1855;50.934;6.958;2024-03-23T15:16:36;5.10;99.90
3678;DHT22;1855;50.934;6.958;2024-03-23T15:19:02;4.90;99.90
3678;DHT22;1855;50.934;6.958;2024-03-23T15:21:31;4.90;99.90
3678;DHT22;1855;50.934;6.958;2024-03-23T15:23:58;5.10;99.90
3678;DHT22;1855;50.934;6.958;2024-03-23T15:26:24;6.00;99.90
3678;DHT22;1855;50.934;6.958;2024-03-23T15:28:50;7.10;99.90
3678;DHT22;1855;50.934;6.958;2024-03-23T15:31:35;7.80;99.90
3678;DHT22;1855;50.934;6.958;2024-03-23T15:34:02;7.70;99.90
3678;DHT22;1855;50.934;6.958;2024-03-23T15:36:29;7.30;99.90
3678;DHT22;1855;50.934;6.958;2024-03-23T15:38:54;7.80;99.90
3678;DHT22;1855;50.934;6.958;2024-03-23T15:41:23;8.90;99.90
3678;DHT22;1855;50.934;6.958;2024-03-23T15:43:49;10.10;99.90
3678;DHT22;1855;50.934;6.958;2024-03-23T15:46:16;10.80;99.90
3678;DHT22;1855;50.934;6.958;2024-03-23T15:48:44;11.70;99.90
3678;DHT22;1855;50.934;6.958;2024-03-23T15:51:13;11.80;99.90
3678;DHT22;1855;50.934;6.958;2024-03-23T15:53:39;11.80;97.70
3678;DHT22;1855;50.934;6.958;2024-03-23T15:56:06;11.50;96.60
3678;DHT22;1855;50.934;6.958;2024-03-23T15:58:34;11.00;99.90
3678;DHT22;1855;50.934;6.958;2024-03-23T16:01:02;10.20;99.80
3678;DHT22;1855;50.934;6.958;2024-03-23T16:03:28;9.40;99.90
3678;DHT22;1855;50.934;6.958;2024-03-23T16:05:57;8.90;99.90
3678;DHT22;1855;50.934;6.958;2024-03-23T16:08:23;8.50;99.90
3678;DHT22;1855;50.934;6.958;2024-03-23T16:10:51;8.20;99.90
3678;DHT22;1855;50.934;6.958;2024-03-23T16:13:18;7.90;99.90
3678;DHT22;1855;50.934;6.958;2024-03-23T16:15:46;7.70;99.90
3678;DHT22;1855;50.934;6.958;2024-03-23T16:18:19;7.40;99.90
3678;DHT22;1855;50.934;6.958;2024-03-23T16:20:52;7.10;99.90
3678;DHT22;1855;50.934;6.958;2024-03-23T16:23:18;7.00;99.90
3678;DHT22;1855;50.934;6.958;2024-03-23T16:25:47;6.80;99.90
3678;DHT22;1855;50.934;6.958;2024-03-23T16:28:14;6.70;99.90
3678;DHT22;1855;50.934;6.958;2024-03-23T16:30:41;6.80;99.90
3678;DHT22;1855;50.934;6.958;2024-03-23T16:33:08;6.70;99.90
3678;DHT22;1855;50.934;6.958;2024-03-23T16:35:36;6.70;99.90
3678;DHT22;1855;50.934;6.958;2024-03-23T16:38:01;6.80;99.90
3678;DHT22;1855;50.934;6.958;2024-03-23T16:40:28;6.80;99.90
3678;DHT22;1855;50.934;6.958;2024-03-23T16:42:54;6.80;99.90
3678;DHT22;1855;50.934;6.958;2024-03-23T16:45:20;6.90;99.90
3678;DHT22;1855;50.934;6.958;2024-03-23T16:47:46;7.00;99.90
3678;DHT22;1855;50.934;6.958;2024-03-23T16:50:14;6.90;99.90
3678;DHT22;1855;50.934;6.958;2024-03-23T16:52:40;6.80;99.90
3678;DHT22;1855;50.934;6.958;2024-03-23T16:55:07;6.80;99.90
3678;DHT22;1855;50.934;6.958;2024-03-23T16:57:33;6.80;99.90
3678;DHT22;1855;50.934;6.958;2024-03-23T16:59:59;6.80;99.90
3678;DHT22;1855;50.934;6.958;2024-03-23T17:02:25;6.80;99.90
3678;DHT22;1855;50.934;6.958;2024-03-23T17:04:52;6.80;99.90
3678;DHT22;1855;50.934;6.958;2024-03-23T17:07:19;6.80;99.90
3678;DHT22;1855;50.934;6.958;2024-03-23T17:09:47;6.80;99.90
3678;DHT22;1855;50.934;6.958;2024-03-23T17:12:13;6.80;99.90
3678;DHT22;1855;50.934;6.958;2024-03-23T17:14:39;6.70;99.90
3678;DHT22;1855;50.934;6.958;2024-03-23T17:17:06;6.70;99.90
3678;DHT22;1855;50.934;6.958;2024-03-23T17:19:33;6.70;99.90
3678;DHT22;1855;50.934;6.958;2024-03-23T17:21:58;6.50;99.90
3678;DHT22;1855;50.934;6.958;2024-03-23T17:24:27;6.50;99.90
3678;DHT22;1855;50.934;6.958;2024-03-23T17:26:52;6.30;99.90
3678;DHT22;1855;50.934;6.958;2024-03-23T17:29:19;6.20;99.90
3678;DHT22;1855;50.934;6.958;2024-03-23T17:31:45;6.20;99.90
3678;DHT22;1855;50.934;6.958;2024-03-23T17:34:11;6.10;99.90
3678;DHT22;1855;50.934;6.958;2024-03-23T17:36:37;6.10;99.90
3678;DHT22;1855;50.934;6.958;2024-03-23T17:39:04;6.10;99.90
3678;DHT22;1855;50.934;6.958;2024-03-23T17:41:33;6.10;99.90
3678;DHT22;1855;50.934;6.958;2024-03-23T17:43:58;6.10;99.90
3678;DHT22;1855;50.934;6.958;2024-03-23T17:46:25;6.10;99.90
3678;DHT22;1855;50.934;6.958;2024-03-23T17:48:51;6.10;99.90
3678;DHT22;1855;50.934;6.958;2024-03-23T17:51:18;6.10;99.90
3678;DHT22;1855;50.934;6.958;2024-03-23T17:53:44;6.10;99.90
3678;DHT22;1855;50.934;6.958;2024-03-23T17:56:11;6.10;99.90
3678;DHT22;1855;50.934;6.958;2024-03-23T17:58:39;6.10;99.90
3678;DHT22;1855;50.934;6.958;2024-03-23T18:01:06;6.10;99.90
3678;DHT22;1855;50.934;6.958;2024-03-23T18:03:32;6.10;99.90
3678;DHT22;1855;50.934;6.958;2024-03-23T18:05:59;6.10;99.90
3678;DHT22;1855;50.934;6.958;2024-03-23T18:08:25;6.10;99.90
3678;DHT22;1855;50.934;6.958;2024-03-23T18:10:52;6.10;99.90
3678;DHT22;1855;50.934;6.958;2024-03-23T18:13:18;6.10;99.90
3678;DHT22;1855;50.934;6.958;2024-03-23T18:15:55;6.00;99.90
3678;DHT22;1855;50.934;6.958;2024-03-23T18:18:21;6.10;99.90
3678;DHT22;1855;50.934;6.958;2024-03-23T18:20:50;6.10;99.90
3678;DHT22;1855;50.934;6.958;2024-03-23T18:23:16;6.10;99.90
3678;DHT22;1855;50.934;6.958;2024-03-23T18:25:50;6.10;99.90
3678;DHT22;1855;50.934;6.958;2024-03-23T18:28:16;6.10;99.90
3678;DHT22;1855;50.934;6.958;2024-03-23T18:30:42;6.00;99.90
3678;DHT22;1855;50.934;6.958;2024-03-23T18:33:10;6.00;99.90
3678;DHT22;1855;50.934;6.958;2024-03-23T18:35:36;5.80;99.90
3678;DHT22;1855;50.934;6.958;2024-03-23T18:38:02;5.80;99.90
3678;DHT22;1855;50.934;6.958;2024-03-23T18:40:30;5.70;99.90
3678;DHT22;1855;50.934;6.958;2024-03-23T18:42:55;5.50;99.90
3678;DHT22;1855;50.934;6.958;2024-03-23T18:45:22;5.40;99.90
3678;DHT22;1855;50.934;6.958;2024-03-23T18:47:48;5.20;99.90
3678;DHT22;1855;50.934;6.958;2024-03-23T18:50:16;5.10;99.90
3678;DHT22;1855;50.934;6.958;2024-03-23T18:52:43;4.90;99.90
3678;DHT22;1855;50.934;6.958;2024-03-23T18:55:09;4.80;99.90
3678;DHT22;1855;50.934;6.958;2024-03-23T18:57:35;4.80;99.90
3678;DHT22;1855;50.934;6.958;2024-03-23T19:00:02;4.70;99.90
3678;DHT22;1855;50.934;6.958;2024-03-23T19:02:28;4.60;99.90
3678;DHT22;1855;50.934;6.958;2024-03-23T19:04:55;4.60;99.90
3678;DHT22;1855;50.934;6.958;2024-03-23T19:07:22;4.40;99.90
3678;DHT22;1855;50.934;6.958;2024-03-23T19:09:50;4.40;99.90
3678;DHT22;1855;50.934;6.958;2024-03-23T19:12:16;4.40;99.90
3678;DHT22;1855;50.934;6.958;2024-03-23T19:14:43;4.30;99.90
3678;DHT22;1855;50.934;6.958;2024-03-23T19:17:08;4.30;99.90
3678;DHT22;1855;50.934;6.958;2024-03-23T19:19:36;4.30;99.90
3678;DHT22;1855;50.934;6.958;2024-03-23T19:22:02;4.20;99.90
3678;DHT22;1855;50.934;6.958;2024-03-23T19:24:30;4.20;99.90
3678;DHT22;1855;50.934;6.958;2024-03-23T19:26:55;4.10;99.90
3678;DHT22;1855;50.934;6.958;2024-03-23T19:29:22;4.10;99.90
3678;DHT22;1855;50.934;6.958;2024-03-23T19:31:48;4.10;99.90
3678;DHT22;1855;50.934;6.958;2024-03-23T19:34:14;4.10;99.90
3678;DHT22;1855;50.934;6.958;2024-03-23T19:36:40;4.00;99.90
3678;DHT22;1855;50.934;6.958;2024-03-23T19:39:07;4.00;99.90
3678;DHT22;1855;50.934;6.958;2024-03-23T19:41:34;4.00;99.90
3678;DHT22;1855;50.934;6.958;2024-03-23T19:44:01;4.00;99.90
3678;DHT22;1855;50.934;6.958;2024-03-23T19:46:26;4.00;99.90
3678;DHT22;1855;50.934;6.958;2024-03-23T19:48:53;4.00;99.90
3678;DHT22;1855;50.934;6.958;2024-03-23T19:51:19;4.00;99.90
3678;DHT22;1855;50.934;6.958;2024-03-23T19:53:49;4.00;99.90
3678;DHT22;1855;50.934;6.958;2024-03-23T19:56:15;4.00;99.90
3678;DHT22;1855;50.934;6.958;2024-03-23T19:58:43;4.00;99.90
3678;DHT22;1855;50.934;6.958;2024-03-23T20:01:14;4.00;99.90
3678;DHT22;1855;50.934;6.958;2024-03-23T20:03:40;4.00;99.90
3678;DHT22;1855;50.934;6.958;2024-03-23T20:06:09;4.00;99.90
3678;DHT22;1855;50.934;6.958;2024-03-23T20:08:36;4.00;99.90
3678;DHT22;1855;50.934;6.958;2024-03-23T20:11:02;4.10;99.90
3678;DHT22;1855;50.934;6.958;2024-03-23T20:13:29;4.10;99.90
3678;DHT22;1855;50.934;6.958;2024-03-23T20:15:57;4.10;99.90
3678;DHT22;1855;50.934;6.958;2024-03-23T20:18:23;4.20;99.90
3678;DHT22;1855;50.934;6.958;2024-03-23T20:20:50;4.20;99.90
3678;DHT22;1855;50.934;6.958;2024-03-23T20:23:17;4.30;99.90
3678;DHT22;1855;50.934;6.958;2024-03-23T20:25:50;4.30;99.90
3678;DHT22;1855;50.934;6.958;2024-03-23T20:28:17;4.30;99.90
3678;DHT22;1855;50.934;6.958;2024-03-23T20:30:43;4.30;99.90
3678;DHT22;1855;50.934;6.958;2024-03-23T20:33:11;4.30;99.90
3678;DHT22;1855;50.934;6.958;2024-03-23T20:35:37;4.40;99.90
3678;DHT22;1855;50.934;6.958;2024-03-23T20:38:03;4.40;99.90
3678;DHT22;1855;50.934;6.958;2024-03-23T20:40:30;4.40;99.90
3678;DHT22;1855;50.934;6.958;2024-03-23T20:43:07;4.40;99.90
3678;DHT22;1855;50.934;6.958;2024-03-23T20:45:34;4.40;99.90
3678;DHT22;1855;50.934;6.958;2024-03-23T20:47:59;4.40;99.90
3678;DHT22;1855;50.934;6.958;2024-03-23T20:50:28;4.50;99.90
3678;DHT22;1855;50.934;6.958;2024-03-23T20:52:54;4.50;99.90
3678;DHT22;1855;50.934;6.958;2024-03-23T20:55:20;4.50;99.90
3678;DHT22;1855;50.934;6.958;2024-03-23T20:57:47;4.60;99.90
3678;DHT22;1855;50.934;6.958;2024-03-23T21:00:14;4.60;99.90
3678;DHT22;1855;50.934;6.958;2024-03-23T21:02:41;4.60;99.90
3678;DHT22;1855;50.934;6.958;2024-03-23T21:05:07;4.60;99.90
3678;DHT22;1855;50.934;6.958;2024-03-23T21:07:35;4.60;99.90
3678;DHT22;1855;50.934;6.958;2024-03-23T21:10:01;4.60;99.90
3678;DHT22;1855;50.934;6.958;2024-03-23T21:12:28;4.60;99.90
3678;DHT22;1855;50.934;6.958;2024-03-23T21:14:53;4.50;99.90
3678;DHT22;1855;50.934;6.958;2024-03-23T21:17:20;4.40;99.90
3678;DHT22;1855;50.934;6.958;2024-03-23T21:19:46;4.40;99.90
3678;DHT22;1855;50.934;6.958;2024-03-23T21:22:13;4.30;99.90
3678;DHT22;1855;50.934;6.958;2024-03-23T21:24:41;4.30;99.90
3678;DHT22;1855;50.934;6.958;2024-03-23T21:27:09;4.20;99.90
3678;DHT22;1855;50.934;6.958;2024-03-23T21:29:34;4.30;99.90
3678;DHT22;1855;50.934;6.958;2024-03-23T21:32:01;4.30;99.90
3678;DHT22;1855;50.934;6.958;2024-03-23T21:34:27;4.30;99.90
3678;DHT22;1855;50.934;6.958;2024-03-23T21:36:54;4.20;99.90
3678;DHT22;1855;50.934;6.958;2024-03-23T21:39:19;4.20;99.90
3678;DHT22;1855;50.934;6.958;2024-03-23T21:41:48;4.20;99.90
3678;DHT22;1855;50.934;6.958;2024-03-23T21:44:14;4.20;99.90